sensor_id;sensor_type;location;lat;lon;timestamp;temperature;humidity
75821;DHT22;64454;51.984;9.838;2023-02-26T00:00:35;2.70;1.00
75821;DHT22;64454;51.984;9.838;2023-02-26T00:03:02;2.70;1.00
75821;DHT22;64454;51.984;9.838;2023-02-26T00:05:29;2.60;1.00
75821;DHT22;64454;51.984;9.838;2023-02-26T00:07:56;2.70;1.00
75821;DHT22;64454;51.984;9.838;2023-02-26T00:10:23;2.70;1.00
75821;DHT22;64454;51.984;9.838;2023-02-26T00:12:51;2.80;1.00
75821;DHT22;64454;51.984;9.838;2023-02-26T00:15:19;2.80;1.00
75821;DHT22;64454;51.984;9.838;2023-02-26T00:17:51;2.70;1.00
75821;DHT22;64454;51.984;9.838;2023-02-26T00:20:24;2.60;1.00
75821;DHT22;64454;51.984;9.838;2023-02-26T00:22:52;2.50;1.00
75821;DHT22;64454;51.984;9.838;2023-02-26T00:25:19;2.50;1.00
75821;DHT22;64454;51.984;9.838;2023-02-26T00:27:46;2.60;1.00
75821;DHT22;64454;51.984;9.838;2023-02-26T00:30:16;2.50;1.00
75821;DHT22;64454;51.984;9.838;2023-02-26T00:32:44;2.50;1.00
75821;DHT22;64454;51.984;9.838;2023-02-26T00:35:14;2.50;1.00
75821;DHT22;64454;51.984;9.838;2023-02-26T00:37:55;2.40;1.00
75821;DHT22;64454;51.984;9.838;2023-02-26T00:40:34;2.30;1.00
75821;DHT22;64454;51.984;9.838;2023-02-26T00:43:04;2.40;1.00
75821;DHT22;64454;51.984;9.838;2023-02-26T00:45:34;2.40;1.00
75821;DHT22;64454;51.984;9.838;2023-02-26T00:48:35;2.50;1.00
75821;DHT22;64454;51.984;9.838;2023-02-26T00:51:15;2.40;1.00
75821;DHT22;64454;51.984;9.838;2023-02-26T00:53:50;2.50;1.00
75821;DHT22;64454;51.984;9.838;2023-02-26T00:56:23;2.60;1.00
75821;DHT22;64454;51.984;9.838;2023-02-26T00:58:50;2.60;1.00
75821;DHT22;64454;51.984;9.838;2023-02-26T01:01:18;2.70;1.00
75821;DHT22;64454;51.984;9.838;2023-02-26T01:03:45;2.70;1.00
75821;DHT22;64454;51.984;9.838;2023-02-26T01:06:16;2.80;1.00
75821;DHT22;64454;51.984;9.838;2023-02-26T01:08:51;2.80;1.00
75821;DHT22;64454;51.984;9.838;2023-02-26T01:11:25;2.90;1.00
75821;DHT22;64454;51.984;9.838;2023-02-26T01:13:53;2.90;1.00
75821;DHT22;64454;51.984;9.838;2023-02-26T01:16:24;2.90;1.00
75821;DHT22;64454;51.984;9.838;2023-02-26T01:18:58;3.00;1.00
75821;DHT22;64454;51.984;9.838;2023-02-26T01:21:31;3.10;1.00
75821;DHT22;64454;51.984;9.838;2023-02-26T01:24:04;3.10;1.00
75821;DHT22;64454;51.984;9.838;2023-02-26T01:26:34;2.90;1.00
75821;DHT22;64454;51.984;9.838;2023-02-26T01:29:01;2.80;1.00
75821;DHT22;64454;51.984;9.838;2023-02-26T01:31:37;2.90;1.00
75821;DHT22;64454;51.984;9.838;2023-02-26T01:34:10;2.90;1.00
75821;DHT22;64454;51.984;9.838;2023-02-26T01:36:50;2.80;1.00
75821;DHT22;64454;51.984;9.838;2023-02-26T01:39:27;3.00;1.00
75821;DHT22;64454;51.984;9.838;2023-02-26T01:42:00;3.00;1.00
75821;DHT22;64454;51.984;9.838;2023-02-26T01:44:38;3.00;1.00
75821;DHT22;64454;51.984;9.838;2023-02-26T01:47:16;3.10;1.00
75821;DHT22;64454;51.984;9.838;2023-02-26T01:49:47;3.00;1.00
75821;DHT22;64454;51.984;9.838;2023-02-26T01:55:42;3.00;1.00
75821;DHT22;64454;51.984;9.838;2023-02-26T01:58:11;2.90;1.00
75821;DHT22;64454;51.984;9.838;2023-02-26T02:00:38;3.00;1.00
75821;DHT22;64454;51.984;9.838;2023-02-26T02:03:06;3.00;1.00
75821;DHT22;64454;51.984;9.838;2023-02-26T02:05:38;3.00;1.00
75821;DHT22;64454;51.984;9.838;2023-02-26T02:08:07;3.00;1.00
75821;DHT22;64454;51.984;9.838;2023-02-26T02:10:40;3.00;1.00
75821;DHT22;64454;51.984;9.838;2023-02-26T02:16:26;2.90;1.00
75821;DHT22;64454;51.984;9.838;2023-02-26T02:19:13;2.90;1.00
75821;DHT22;64454;51.984;9.838;2023-02-26T02:22:14;2.90;1.00
75821;DHT22;64454;51.984;9.838;2023-02-26T02:25:00;2.70;1.00
75821;DHT22;64454;51.984;9.838;2023-02-26T02:27:45;2.60;1.00
75821;DHT22;64454;51.984;9.838;2023-02-26T02:30:34;2.50;1.00
75821;DHT22;64454;51.984;9.838;2023-02-26T02:33:12;2.60;1.00
75821;DHT22;64454;51.984;9.838;2023-02-26T02:35:47;2.60;1.00
75821;DHT22;64454;51.984;9.838;2023-02-26T02:38:24;2.50;1.00
75821;DHT22;64454;51.984;9.838;2023-02-26T02:40:55;2.50;1.00
75821;DHT22;64454;51.984;9.838;2023-02-26T02:43:32;2.40;1.00
75821;DHT22;64454;51.984;9.838;2023-02-26T02:46:04;2.40;1.00
75821;DHT22;64454;51.984;9.838;2023-02-26T02:48:37;2.40;1.00
75821;DHT22;64454;51.984;9.838;2023-02-26T02:51:10;2.40;1.00
75821;DHT22;64454;51.984;9.838;2023-02-26T02:53:46;2.30;1.00
75821;DHT22;64454;51.984;9.838;2023-02-26T02:56:18;2.20;1.00
75821;DHT22;64454;51.984;9.838;2023-02-26T02:58:50;2.20;1.00
75821;DHT22;64454;51.984;9.838;2023-02-26T03:01:22;2.20;1.00
75821;DHT22;64454;51.984;9.838;2023-02-26T03:03:58;2.20;1.00
75821;DHT22;64454;51.984;9.838;2023-02-26T03:06:30;2.30;1.00
75821;DHT22;64454;51.984;9.838;2023-02-26T03:08:57;2.30;1.00
75821;DHT22;64454;51.984;9.838;2023-02-26T03:11:26;2.40;1.00
75821;DHT22;64454;51.984;9.838;2023-02-26T03:13:54;2.30;1.00
75821;DHT22;64454;51.984;9.838;2023-02-26T03:16:38;2.40;1.00
75821;DHT22;64454;51.984;9.838;2023-02-26T03:19:21;2.40;1.00
75821;DHT22;64454;51.984;9.838;2023-02-26T03:21:56;2.40;1.00
75821;DHT22;64454;51.984;9.838;2023-02-26T03:24:31;2.40;1.00
75821;DHT22;64454;51.984;9.838;2023-02-26T03:27:07;2.30;1.00
75821;DHT22;64454;51.984;9.838;2023-02-26T03:29:39;2.40;1.00
75821;DHT22;64454;51.984;9.838;2023-02-26T03:32:15;2.10;1.00
75821;DHT22;64454;51.984;9.838;2023-02-26T03:34:53;2.10;1.00
75821;DHT22;64454;51.984;9.838;2023-02-26T03:37:29;2.10;1.00
75821;DHT22;64454;51.984;9.838;2023-02-26T03:40:03;2.10;1.00
75821;DHT22;64454;51.984;9.838;2023-02-26T03:42:39;2.20;1.00
75821;DHT22;64454;51.984;9.838;2023-02-26T03:45:12;2.20;1.00
75821;DHT22;64454;51.984;9.838;2023-02-26T03:47:44;2.30;1.00
75821;DHT22;64454;51.984;9.838;2023-02-26T03:50:18;2.40;1.00
75821;DHT22;64454;51.984;9.838;2023-02-26T03:52:48;2.50;1.00
75821;DHT22;64454;51.984;9.838;2023-02-26T03:55:22;2.60;1.00
75821;DHT22;64454;51.984;9.838;2023-02-26T03:57:53;2.50;1.00
75821;DHT22;64454;51.984;9.838;2023-02-26T04:00:21;2.50;1.00
75821;DHT22;64454;51.984;9.838;2023-02-26T04:02:54;2.50;1.00
75821;DHT22;64454;51.984;9.838;2023-02-26T04:05:27;2.60;1.00
75821;DHT22;64454;51.984;9.838;2023-02-26T04:07:57;2.60;1.00
75821;DHT22;64454;51.984;9.838;2023-02-26T04:10:28;2.50;1.00
75821;DHT22;64454;51.984;9.838;2023-02-26T04:13:01;2.60;1.00
75821;DHT22;64454;51.984;9.838;2023-02-26T04:15:28;2.60;1.00
75821;DHT22;64454;51.984;9.838;2023-02-26T04:17:55;2.60;1.00
75821;DHT22;64454;51.984;9.838;2023-02-26T04:20:22;2.50;1.00
75821;DHT22;64454;51.984;9.838;2023-02-26T04:22:50;2.50;1.00
75821;DHT22;64454;51.984;9.838;2023-02-26T04:25:17;2.60;1.00
75821;DHT22;64454;51.984;9.838;2023-02-26T04:27:44;2.60;1.00
75821;DHT22;64454;51.984;9.838;2023-02-26T04:30:11;2.50;1.00
75821;DHT22;64454;51.984;9.838;2023-02-26T04:32:38;2.60;1.00
75821;DHT22;64454;51.984;9.838;2023-02-26T04:35:05;2.70;1.00
75821;DHT22;64454;51.984;9.838;2023-02-26T04:37:33;2.60;1.00
75821;DHT22;64454;51.984;9.838;2023-02-26T04:40:01;2.60;1.00
75821;DHT22;64454;51.984;9.838;2023-02-26T04:42:29;2.60;1.00
75821;DHT22;64454;51.984;9.838;2023-02-26T04:44:56;2.60;1.00
75821;DHT22;64454;51.984;9.838;2023-02-26T04:47:22;2.60;1.00
75821;DHT22;64454;51.984;9.838;2023-02-26T04:49:49;2.70;1.00
75821;DHT22;64454;51.984;9.838;2023-02-26T04:52:16;2.80;1.00
75821;DHT22;64454;51.984;9.838;2023-02-26T04:54:43;2.80;1.00
75821;DHT22;64454;51.984;9.838;2023-02-26T04:57:11;2.60;1.00
75821;DHT22;64454;51.984;9.838;2023-02-26T04:59:38;2.70;1.00
75821;DHT22;64454;51.984;9.838;2023-02-26T05:02:04;2.60;1.00
75821;DHT22;64454;51.984;9.838;2023-02-26T05:04:31;2.70;1.00
75821;DHT22;64454;51.984;9.838;2023-02-26T05:06:58;2.80;1.00
75821;DHT22;64454;51.984;9.838;2023-02-26T05:09:25;2.90;1.00
75821;DHT22;64454;51.984;9.838;2023-02-26T05:11:52;2.90;1.00
75821;DHT22;64454;51.984;9.838;2023-02-26T05:14:22;3.00;1.00
75821;DHT22;64454;51.984;9.838;2023-02-26T05:16:50;2.90;1.00
75821;DHT22;64454;51.984;9.838;2023-02-26T05:19:17;2.90;1.00
75821;DHT22;64454;51.984;9.838;2023-02-26T05:21:45;3.00;1.00
75821;DHT22;64454;51.984;9.838;2023-02-26T05:24:14;2.90;1.00
75821;DHT22;64454;51.984;9.838;2023-02-26T05:26:42;2.90;1.00
75821;DHT22;64454;51.984;9.838;2023-02-26T05:29:11;3.00;1.00
75821;DHT22;64454;51.984;9.838;2023-02-26T05:31:39;3.00;1.00
75821;DHT22;64454;51.984;9.838;2023-02-26T05:34:06;2.70;1.00
75821;DHT22;64454;51.984;9.838;2023-02-26T05:36:33;2.80;1.00
75821;DHT22;64454;51.984;9.838;2023-02-26T05:39:00;2.80;1.00
75821;DHT22;64454;51.984;9.838;2023-02-26T05:41:27;2.80;1.00
75821;DHT22;64454;51.984;9.838;2023-02-26T05:43:54;2.80;1.00
75821;DHT22;64454;51.984;9.838;2023-02-26T05:46:21;2.80;1.00
75821;DHT22;64454;51.984;9.838;2023-02-26T05:48:49;2.70;1.00
75821;DHT22;64454;51.984;9.838;2023-02-26T05:51:15;2.80;1.00
75821;DHT22;64454;51.984;9.838;2023-02-26T05:53:42;2.70;1.00
75821;DHT22;64454;51.984;9.838;2023-02-26T05:56:10;2.70;1.00
75821;DHT22;64454;51.984;9.838;2023-02-26T05:58:37;2.70;1.00
75821;DHT22;64454;51.984;9.838;2023-02-26T06:01:04;2.80;1.00
75821;DHT22;64454;51.984;9.838;2023-02-26T06:03:31;2.70;1.00
75821;DHT22;64454;51.984;9.838;2023-02-26T06:05:59;2.60;1.00
75821;DHT22;64454;51.984;9.838;2023-02-26T06:08:26;2.60;1.00
75821;DHT22;64454;51.984;9.838;2023-02-26T06:10:53;2.50;1.00
75821;DHT22;64454;51.984;9.838;2023-02-26T06:13:20;2.50;1.00
75821;DHT22;64454;51.984;9.838;2023-02-26T06:15:48;2.50;1.00
75821;DHT22;64454;51.984;9.838;2023-02-26T06:18:16;2.40;1.00
75821;DHT22;64454;51.984;9.838;2023-02-26T06:20:43;2.40;1.00
75821;DHT22;64454;51.984;9.838;2023-02-26T06:23:11;2.60;1.00
75821;DHT22;64454;51.984;9.838;2023-02-26T06:25:39;2.60;1.00
75821;DHT22;64454;51.984;9.838;2023-02-26T06:28:07;2.70;1.00
75821;DHT22;64454;51.984;9.838;2023-02-26T06:30:34;2.70;1.00
75821;DHT22;64454;51.984;9.838;2023-02-26T06:33:01;2.70;1.00
75821;DHT22;64454;51.984;9.838;2023-02-26T06:35:28;2.80;1.00
75821;DHT22;64454;51.984;9.838;2023-02-26T06:37:55;2.80;1.00
75821;DHT22;64454;51.984;9.838;2023-02-26T06:40:23;2.90;1.00
75821;DHT22;64454;51.984;9.838;2023-02-26T06:42:50;2.90;1.00
75821;DHT22;64454;51.984;9.838;2023-02-26T06:45:17;2.80;1.00
75821;DHT22;64454;51.984;9.838;2023-02-26T06:47:44;2.90;1.00
75821;DHT22;64454;51.984;9.838;2023-02-26T06:50:11;2.80;1.00
75821;DHT22;64454;51.984;9.838;2023-02-26T06:52:38;3.00;1.00
75821;DHT22;64454;51.984;9.838;2023-02-26T06:55:05;3.00;1.00
75821;DHT22;64454;51.984;9.838;2023-02-26T06:57:34;2.90;1.00
75821;DHT22;64454;51.984;9.838;2023-02-26T07:00:02;2.80;1.00
75821;DHT22;64454;51.984;9.838;2023-02-26T07:02:30;2.90;1.00
75821;DHT22;64454;51.984;9.838;2023-02-26T07:04:57;3.00;1.00
75821;DHT22;64454;51.984;9.838;2023-02-26T07:07:24;2.90;1.00
75821;DHT22;64454;51.984;9.838;2023-02-26T07:09:50;3.00;1.00
75821;DHT22;64454;51.984;9.838;2023-02-26T07:12:17;3.00;1.00
75821;DHT22;64454;51.984;9.838;2023-02-26T07:14:45;2.90;1.00
75821;DHT22;64454;51.984;9.838;2023-02-26T07:17:12;2.90;1.00
75821;DHT22;64454;51.984;9.838;2023-02-26T07:19:45;3.00;1.00
75821;DHT22;64454;51.984;9.838;2023-02-26T07:22:12;3.20;1.00
75821;DHT22;64454;51.984;9.838;2023-02-26T07:24:39;3.20;1.00
75821;DHT22;64454;51.984;9.838;2023-02-26T07:27:06;3.30;1.00
75821;DHT22;64454;51.984;9.838;2023-02-26T07:29:33;3.50;1.00
75821;DHT22;64454;51.984;9.838;2023-02-26T07:32:02;3.70;1.00
75821;DHT22;64454;51.984;9.838;2023-02-26T07:34:29;3.90;1.00
75821;DHT22;64454;51.984;9.838;2023-02-26T07:36:56;4.10;1.00
75821;DHT22;64454;51.984;9.838;2023-02-26T07:39:23;4.20;1.00
75821;DHT22;64454;51.984;9.838;2023-02-26T07:41:51;4.40;1.00
75821;DHT22;64454;51.984;9.838;2023-02-26T07:44:18;4.50;1.00
75821;DHT22;64454;51.984;9.838;2023-02-26T07:46:46;4.50;1.00
75821;DHT22;64454;51.984;9.838;2023-02-26T07:49:15;4.70;1.00
75821;DHT22;64454;51.984;9.838;2023-02-26T07:51:44;4.70;1.00
75821;DHT22;64454;51.984;9.838;2023-02-26T07:54:11;4.80;1.00
75821;DHT22;64454;51.984;9.838;2023-02-26T07:56:39;4.80;1.00
75821;DHT22;64454;51.984;9.838;2023-02-26T07:59:07;5.00;1.00
75821;DHT22;64454;51.984;9.838;2023-02-26T08:01:35;5.30;1.00
75821;DHT22;64454;51.984;9.838;2023-02-26T08:04:02;5.60;1.00
75821;DHT22;64454;51.984;9.838;2023-02-26T08:06:31;5.70;1.00
75821;DHT22;64454;51.984;9.838;2023-02-26T08:08:58;6.00;1.00
75821;DHT22;64454;51.984;9.838;2023-02-26T08:11:25;6.50;1.00
75821;DHT22;64454;51.984;9.838;2023-02-26T08:13:52;6.90;1.00
75821;DHT22;64454;51.984;9.838;2023-02-26T08:16:19;7.00;1.00
75821;DHT22;64454;51.984;9.838;2023-02-26T08:18:46;7.20;1.00
75821;DHT22;64454;51.984;9.838;2023-02-26T08:21:13;7.40;1.00
75821;DHT22;64454;51.984;9.838;2023-02-26T08:23:41;8.00;1.00
75821;DHT22;64454;51.984;9.838;2023-02-26T08:26:09;8.40;1.00
75821;DHT22;64454;51.984;9.838;2023-02-26T08:28:38;8.30;1.00
75821;DHT22;64454;51.984;9.838;2023-02-26T08:31:05;8.20;1.00
75821;DHT22;64454;51.984;9.838;2023-02-26T08:33:33;8.00;1.00
75821;DHT22;64454;51.984;9.838;2023-02-26T08:36:00;7.70;1.00
75821;DHT22;64454;51.984;9.838;2023-02-26T08:38:27;7.70;1.00
75821;DHT22;64454;51.984;9.838;2023-02-26T08:40:56;8.40;1.00
75821;DHT22;64454;51.984;9.838;2023-02-26T08:43:24;10.20;1.00
75821;DHT22;64454;51.984;9.838;2023-02-26T08:45:51;12.10;1.00
75821;DHT22;64454;51.984;9.838;2023-02-26T08:48:19;14.00;1.00
75821;DHT22;64454;51.984;9.838;2023-02-26T08:50:46;15.40;1.00
75821;DHT22;64454;51.984;9.838;2023-02-26T08:53:13;17.10;1.00
75821;DHT22;64454;51.984;9.838;2023-02-26T08:55:40;18.50;1.00
75821;DHT22;64454;51.984;9.838;2023-02-26T08:58:10;18.80;1.00
75821;DHT22;64454;51.984;9.838;2023-02-26T09:00:37;19.20;1.00
75821;DHT22;64454;51.984;9.838;2023-02-26T09:03:04;20.50;1.00
75821;DHT22;64454;51.984;9.838;2023-02-26T09:05:30;20.20;1.00
75821;DHT22;64454;51.984;9.838;2023-02-26T09:07:57;20.70;1.00
75821;DHT22;64454;51.984;9.838;2023-02-26T09:10:24;21.70;1.00
75821;DHT22;64454;51.984;9.838;2023-02-26T09:12:50;23.00;1.00
75821;DHT22;64454;51.984;9.838;2023-02-26T09:15:19;23.10;1.00
75821;DHT22;64454;51.984;9.838;2023-02-26T09:17:46;21.50;1.00
75821;DHT22;64454;51.984;9.838;2023-02-26T09:20:13;21.10;1.00
75821;DHT22;64454;51.984;9.838;2023-02-26T09:22:41;20.70;1.00
75821;DHT22;64454;51.984;9.838;2023-02-26T09:25:09;19.30;1.00
75821;DHT22;64454;51.984;9.838;2023-02-26T09:27:36;18.00;1.00
75821;DHT22;64454;51.984;9.838;2023-02-26T09:30:04;17.00;1.00
75821;DHT22;64454;51.984;9.838;2023-02-26T09:32:33;16.60;1.00
75821;DHT22;64454;51.984;9.838;2023-02-26T09:35:00;16.20;1.00
75821;DHT22;64454;51.984;9.838;2023-02-26T09:37:27;15.20;1.00
75821;DHT22;64454;51.984;9.838;2023-02-26T09:39:53;15.40;1.00
75821;DHT22;64454;51.984;9.838;2023-02-26T09:42:31;14.30;1.00
75821;DHT22;64454;51.984;9.838;2023-02-26T09:45:11;12.70;1.00
75821;DHT22;64454;51.984;9.838;2023-02-26T09:47:53;11.50;1.00
75821;DHT22;64454;51.984;9.838;2023-02-26T09:50:23;11.10;1.00
75821;DHT22;64454;51.984;9.838;2023-02-26T09:52:55;11.00;1.00
75821;DHT22;64454;51.984;9.838;2023-02-26T09:55:30;12.20;1.00
75821;DHT22;64454;51.984;9.838;2023-02-26T09:58:03;15.70;1.00
75821;DHT22;64454;51.984;9.838;2023-02-26T10:00:37;19.60;1.00
75821;DHT22;64454;51.984;9.838;2023-02-26T10:03:19;22.00;1.00
75821;DHT22;64454;51.984;9.838;2023-02-26T10:06:16;23.30;1.00
75821;DHT22;64454;51.984;9.838;2023-02-26T10:08:59;24.80;1.00
75821;DHT22;64454;51.984;9.838;2023-02-26T10:11:39;25.50;1.00
75821;DHT22;64454;51.984;9.838;2023-02-26T10:14:17;26.60;1.00
75821;DHT22;64454;51.984;9.838;2023-02-26T10:16:53;27.90;1.00
75821;DHT22;64454;51.984;9.838;2023-02-26T10:19:26;26.00;1.00
75821;DHT22;64454;51.984;9.838;2023-02-26T10:21:59;27.00;1.00
75821;DHT22;64454;51.984;9.838;2023-02-26T10:24:35;27.00;1.00
75821;DHT22;64454;51.984;9.838;2023-02-26T10:27:08;27.20;1.00
75821;DHT22;64454;51.984;9.838;2023-02-26T10:29:46;29.10;1.00
75821;DHT22;64454;51.984;9.838;2023-02-26T10:32:25;30.40;1.00
75821;DHT22;64454;51.984;9.838;2023-02-26T10:34:59;29.70;1.00
75821;DHT22;64454;51.984;9.838;2023-02-26T10:37:37;29.10;1.00
75821;DHT22;64454;51.984;9.838;2023-02-26T10:40:16;28.60;1.00
75821;DHT22;64454;51.984;9.838;2023-02-26T10:42:52;28.60;1.00
75821;DHT22;64454;51.984;9.838;2023-02-26T10:45:29;27.50;1.00
75821;DHT22;64454;51.984;9.838;2023-02-26T10:48:11;24.90;1.00
75821;DHT22;64454;51.984;9.838;2023-02-26T10:50:51;22.70;1.00
75821;DHT22;64454;51.984;9.838;2023-02-26T10:53:22;20.50;1.00
75821;DHT22;64454;51.984;9.838;2023-02-26T10:55:52;19.40;1.00
75821;DHT22;64454;51.984;9.838;2023-02-26T10:58:25;19.10;1.00
75821;DHT22;64454;51.984;9.838;2023-02-26T11:00:54;19.40;1.00
75821;DHT22;64454;51.984;9.838;2023-02-26T11:03:28;19.80;1.00
75821;DHT22;64454;51.984;9.838;2023-02-26T11:06:00;20.40;1.00
75821;DHT22;64454;51.984;9.838;2023-02-26T11:08:32;19.70;1.00
75821;DHT22;64454;51.984;9.838;2023-02-26T11:11:01;20.20;1.00
75821;DHT22;64454;51.984;9.838;2023-02-26T11:13:32;19.70;1.00
75821;DHT22;64454;51.984;9.838;2023-02-26T11:16:02;19.70;1.00
75821;DHT22;64454;51.984;9.838;2023-02-26T11:18:39;19.40;1.00
75821;DHT22;64454;51.984;9.838;2023-02-26T11:21:17;18.70;1.00
75821;DHT22;64454;51.984;9.838;2023-02-26T11:23:47;18.60;1.00
75821;DHT22;64454;51.984;9.838;2023-02-26T11:26:17;18.60;1.00
75821;DHT22;64454;51.984;9.838;2023-02-26T11:28:46;18.10;1.00
75821;DHT22;64454;51.984;9.838;2023-02-26T11:31:17;17.90;1.00
75821;DHT22;64454;51.984;9.838;2023-02-26T11:33:48;17.50;1.00
75821;DHT22;64454;51.984;9.838;2023-02-26T11:36:19;16.70;1.00
75821;DHT22;64454;51.984;9.838;2023-02-26T11:38:52;15.90;1.00
75821;DHT22;64454;51.984;9.838;2023-02-26T11:41:22;15.80;1.00
75821;DHT22;64454;51.984;9.838;2023-02-26T11:43:59;15.60;1.00
75821;DHT22;64454;51.984;9.838;2023-02-26T11:46:29;15.10;1.00
75821;DHT22;64454;51.984;9.838;2023-02-26T11:48:59;14.50;1.00
75821;DHT22;64454;51.984;9.838;2023-02-26T11:51:28;14.10;1.00
75821;DHT22;64454;51.984;9.838;2023-02-26T11:53:57;14.10;1.00
75821;DHT22;64454;51.984;9.838;2023-02-26T11:56:29;13.60;1.00
75821;DHT22;64454;51.984;9.838;2023-02-26T11:59:04;13.20;1.00
75821;DHT22;64454;51.984;9.838;2023-02-26T12:01:35;12.60;1.00
75821;DHT22;64454;51.984;9.838;2023-02-26T12:04:03;12.70;1.00
75821;DHT22;64454;51.984;9.838;2023-02-26T12:06:31;12.90;1.00
75821;DHT22;64454;51.984;9.838;2023-02-26T12:08:58;12.90;1.00
75821;DHT22;64454;51.984;9.838;2023-02-26T12:11:47;12.60;1.00
75821;DHT22;64454;51.984;9.838;2023-02-26T12:14:43;12.90;1.00
75821;DHT22;64454;51.984;9.838;2023-02-26T12:17:26;13.30;1.00
75821;DHT22;64454;51.984;9.838;2023-02-26T12:20:07;13.50;1.00
75821;DHT22;64454;51.984;9.838;2023-02-26T12:22:50;13.80;1.00
75821;DHT22;64454;51.984;9.838;2023-02-26T12:29:18;13.10;1.00
75821;DHT22;64454;51.984;9.838;2023-02-26T12:32:20;12.20;1.00
75821;DHT22;64454;51.984;9.838;2023-02-26T12:35:24;11.80;1.00
75821;DHT22;64454;51.984;9.838;2023-02-26T12:38:09;11.90;1.00
75821;DHT22;64454;51.984;9.838;2023-02-26T12:44:20;12.50;1.00
75821;DHT22;64454;51.984;9.838;2023-02-26T12:47:14;12.80;1.00
75821;DHT22;64454;51.984;9.838;2023-02-26T12:53:34;12.50;1.00
75821;DHT22;64454;51.984;9.838;2023-02-26T12:56:24;12.70;1.00
75821;DHT22;64454;51.984;9.838;2023-02-26T12:59:28;14.00;1.00
75821;DHT22;64454;51.984;9.838;2023-02-26T13:02:48;14.70;1.00
75821;DHT22;64454;51.984;9.838;2023-02-26T13:05:48;13.90;1.00
75821;DHT22;64454;51.984;9.838;2023-02-26T13:08:32;12.70;1.00
75821;DHT22;64454;51.984;9.838;2023-02-26T13:11:15;12.10;1.00
75821;DHT22;64454;51.984;9.838;2023-02-26T13:14:03;11.40;1.00
75821;DHT22;64454;51.984;9.838;2023-02-26T13:16:46;13.60;1.00
75821;DHT22;64454;51.984;9.838;2023-02-26T13:19:27;16.70;1.00
75821;DHT22;64454;51.984;9.838;2023-02-26T13:22:09;19.60;1.00
75821;DHT22;64454;51.984;9.838;2023-02-26T13:24:46;21.20;1.00
75821;DHT22;64454;51.984;9.838;2023-02-26T13:27:20;22.30;1.00
75821;DHT22;64454;51.984;9.838;2023-02-26T13:30:05;24.10;1.00
75821;DHT22;64454;51.984;9.838;2023-02-26T13:32:41;23.80;1.00
75821;DHT22;64454;51.984;9.838;2023-02-26T13:35:19;21.50;1.00
75821;DHT22;64454;51.984;9.838;2023-02-26T13:37:53;19.40;1.00
75821;DHT22;64454;51.984;9.838;2023-02-26T13:40:37;17.50;1.00
75821;DHT22;64454;51.984;9.838;2023-02-26T13:43:21;17.20;1.00
75821;DHT22;64454;51.984;9.838;2023-02-26T13:46:04;18.90;1.00
75821;DHT22;64454;51.984;9.838;2023-02-26T13:48:47;19.40;1.00
75821;DHT22;64454;51.984;9.838;2023-02-26T13:51:29;18.50;1.00
75821;DHT22;64454;51.984;9.838;2023-02-26T13:54:01;18.30;1.00
75821;DHT22;64454;51.984;9.838;2023-02-26T13:57:22;18.50;1.00
75821;DHT22;64454;51.984;9.838;2023-02-26T14:00:06;19.60;1.00
75821;DHT22;64454;51.984;9.838;2023-02-26T14:02:49;18.90;1.00
75821;DHT22;64454;51.984;9.838;2023-02-26T14:08:49;18.80;1.00
75821;DHT22;64454;51.984;9.838;2023-02-26T14:11:56;20.50;1.00
75821;DHT22;64454;51.984;9.838;2023-02-26T14:14:32;19.40;1.00
75821;DHT22;64454;51.984;9.838;2023-02-26T14:17:28;19.80;1.00
75821;DHT22;64454;51.984;9.838;2023-02-26T14:20:24;22.00;1.00
75821;DHT22;64454;51.984;9.838;2023-02-26T14:26:16;23.70;1.00
75821;DHT22;64454;51.984;9.838;2023-02-26T14:28:57;24.10;1.00
75821;DHT22;64454;51.984;9.838;2023-02-26T14:32:10;23.60;1.00
75821;DHT22;64454;51.984;9.838;2023-02-26T14:34:47;22.30;1.00
75821;DHT22;64454;51.984;9.838;2023-02-26T14:37:19;20.10;1.00
75821;DHT22;64454;51.984;9.838;2023-02-26T14:39:54;17.90;1.00
75821;DHT22;64454;51.984;9.838;2023-02-26T14:42:30;16.40;1.00
75821;DHT22;64454;51.984;9.838;2023-02-26T14:45:12;15.20;1.00
75821;DHT22;64454;51.984;9.838;2023-02-26T14:47:49;13.90;1.00
75821;DHT22;64454;51.984;9.838;2023-02-26T14:50:18;13.00;1.00
75821;DHT22;64454;51.984;9.838;2023-02-26T14:53:09;12.00;1.00
75821;DHT22;64454;51.984;9.838;2023-02-26T14:56:00;11.70;1.00
75821;DHT22;64454;51.984;9.838;2023-02-26T14:58:59;11.00;1.00
75821;DHT22;64454;51.984;9.838;2023-02-26T15:01:46;10.80;1.00
75821;DHT22;64454;51.984;9.838;2023-02-26T15:04:40;10.70;1.00
75821;DHT22;64454;51.984;9.838;2023-02-26T15:07:31;10.50;1.00
75821;DHT22;64454;51.984;9.838;2023-02-26T15:10:17;10.30;1.00
75821;DHT22;64454;51.984;9.838;2023-02-26T15:13:24;10.10;1.00
75821;DHT22;64454;51.984;9.838;2023-02-26T15:16:08;9.90;1.00
75821;DHT22;64454;51.984;9.838;2023-02-26T15:19:00;10.10;1.00
75821;DHT22;64454;51.984;9.838;2023-02-26T15:21:47;10.30;1.00
75821;DHT22;64454;51.984;9.838;2023-02-26T15:24:28;10.20;1.00
75821;DHT22;64454;51.984;9.838;2023-02-26T15:26:58;9.90;1.00
75821;DHT22;64454;51.984;9.838;2023-02-26T15:29:30;9.90;1.00
75821;DHT22;64454;51.984;9.838;2023-02-26T15:32:05;10.40;1.00
75821;DHT22;64454;51.984;9.838;2023-02-26T15:34:41;11.10;1.00
75821;DHT22;64454;51.984;9.838;2023-02-26T15:37:20;11.60;1.00
75821;DHT22;64454;51.984;9.838;2023-02-26T15:39:48;11.50;1.00
75821;DHT22;64454;51.984;9.838;2023-02-26T15:42:16;11.40;1.00
75821;DHT22;64454;51.984;9.838;2023-02-26T15:44:44;11.20;1.00
75821;DHT22;64454;51.984;9.838;2023-02-26T15:47:14;11.10;1.00
75821;DHT22;64454;51.984;9.838;2023-02-26T15:49:45;10.90;1.00
75821;DHT22;64454;51.984;9.838;2023-02-26T15:52:15;10.40;1.00
75821;DHT22;64454;51.984;9.838;2023-02-26T15:54:49;9.90;1.00
75821;DHT22;64454;51.984;9.838;2023-02-26T15:57:19;9.60;1.00
75821;DHT22;64454;51.984;9.838;2023-02-26T15:59:50;9.20;1.00
75821;DHT22;64454;51.984;9.838;2023-02-26T16:02:20;8.90;1.00
75821;DHT22;64454;51.984;9.838;2023-02-26T16:04:51;8.80;1.00
75821;DHT22;64454;51.984;9.838;2023-02-26T16:07:19;8.70;1.00
75821;DHT22;64454;51.984;9.838;2023-02-26T16:09:49;8.70;1.00
75821;DHT22;64454;51.984;9.838;2023-02-26T16:12:19;8.50;1.00
75821;DHT22;64454;51.984;9.838;2023-02-26T16:14:58;8.50;1.00
75821;DHT22;64454;51.984;9.838;2023-02-26T16:17:29;8.50;1.00
75821;DHT22;64454;51.984;9.838;2023-02-26T16:20:01;8.30;1.00
75821;DHT22;64454;51.984;9.838;2023-02-26T16:22:35;8.30;1.00
75821;DHT22;64454;51.984;9.838;2023-02-26T16:25:07;8.30;1.00
75821;DHT22;64454;51.984;9.838;2023-02-26T16:27:39;8.30;1.00
75821;DHT22;64454;51.984;9.838;2023-02-26T16:30:16;8.20;1.00
75821;DHT22;64454;51.984;9.838;2023-02-26T16:32:44;8.20;1.00
75821;DHT22;64454;51.984;9.838;2023-02-26T16:35:21;8.10;1.00
75821;DHT22;64454;51.984;9.838;2023-02-26T16:37:53;8.10;1.00
75821;DHT22;64454;51.984;9.838;2023-02-26T16:40:23;8.10;1.00
75821;DHT22;64454;51.984;9.838;2023-02-26T16:42:54;8.00;1.00
75821;DHT22;64454;51.984;9.838;2023-02-26T16:45:42;8.00;1.00
75821;DHT22;64454;51.984;9.838;2023-02-26T16:48:18;8.00;1.00
75821;DHT22;64454;51.984;9.838;2023-02-26T16:50:54;8.10;1.00
75821;DHT22;64454;51.984;9.838;2023-02-26T16:53:32;8.10;1.00
75821;DHT22;64454;51.984;9.838;2023-02-26T16:56:03;8.10;1.00
75821;DHT22;64454;51.984;9.838;2023-02-26T16:58:31;8.20;1.00